createdAt,value
2019-05-16T00:00:19.258Z,23.22
2019-05-16T00:01:19.229Z,23.20
2019-05-16T00:02:18.610Z,23.20
2019-05-16T00:03:18.676Z,23.17
2019-05-16T00:04:18.020Z,23.19
2019-05-16T00:05:18.767Z,23.19
2019-05-16T00:06:18.075Z,23.22
2019-05-16T00:07:19.246Z,23.24
2019-05-16T00:08:17.976Z,23.23
2019-05-16T00:09:18.364Z,23.15
2019-05-16T00:10:18.693Z,23.15
2019-05-16T00:11:18.196Z,23.17
2019-05-16T00:12:18.421Z,23.27
2019-05-16T00:13:18.621Z,23.15
2019-05-16T00:14:18.865Z,23.14
2019-05-16T00:15:18.310Z,23.22
2019-05-16T00:16:18.634Z,23.17
2019-05-16T00:17:18.884Z,23.24
2019-05-16T00:18:17.977Z,23.19
2019-05-16T00:19:18.182Z,23.20
2019-05-16T00:20:19.060Z,23.24
2019-05-16T00:21:18.131Z,23.29
2019-05-16T00:22:18.302Z,23.19
2019-05-16T00:23:18.248Z,23.15
2019-05-16T00:24:18.646Z,23.17
2019-05-16T00:25:18.118Z,23.22
2019-05-16T00:26:19.791Z,23.19
2019-05-16T00:27:18.621Z,23.24
2019-05-16T00:28:18.126Z,23.20
2019-05-16T00:29:18.424Z,23.17
2019-05-16T00:30:18.352Z,23.23
2019-05-16T00:31:18.351Z,23.14
2019-05-16T00:32:19.119Z,23.23
2019-05-16T00:33:18.383Z,23.20
2019-05-16T00:34:18.874Z,23.22
2019-05-16T00:35:18.270Z,23.19
2019-05-16T00:36:18.925Z,23.19
2019-05-16T00:37:18.127Z,23.27
2019-05-16T00:38:18.337Z,23.22
2019-05-16T00:39:18.773Z,23.19
2019-05-16T00:40:18.893Z,23.27
2019-05-16T00:41:18.091Z,23.22
2019-05-16T00:42:18.055Z,23.19
2019-05-16T00:43:18.425Z,23.19
2019-05-16T00:44:18.977Z,23.20
2019-05-16T00:45:18.585Z,23.15
2019-05-16T00:46:19.824Z,23.22
2019-05-16T00:47:17.971Z,23.23
2019-05-16T00:48:18.207Z,23.17
2019-05-16T00:49:18.711Z,23.19
2019-05-16T00:50:18.263Z,23.19
2019-05-16T00:51:18.284Z,23.15
2019-05-16T00:52:18.432Z,23.26
2019-05-16T00:53:18.179Z,23.24
2019-05-16T00:54:18.570Z,23.22
2019-05-16T00:55:17.951Z,23.22
2019-05-16T00:56:18.570Z,23.22
2019-05-16T00:57:18.829Z,23.26
2019-05-16T00:58:18.842Z,23.34
2019-05-16T00:59:18.333Z,23.26
2019-05-16T01:00:18.133Z,23.26
2019-05-16T01:01:18.915Z,23.26
2019-05-16T01:02:18.176Z,23.26
2019-05-16T01:03:19.858Z,23.23
2019-05-16T01:04:18.213Z,23.32
2019-05-16T01:05:19.156Z,23.29
2019-05-16T01:06:22.550Z,23.35
2019-05-16T01:07:18.777Z,23.32
2019-05-16T01:08:18.903Z,23.31
2019-05-16T01:09:18.787Z,23.32
2019-05-16T01:10:18.295Z,23.39
2019-05-16T01:11:18.445Z,23.38
2019-05-16T01:12:17.844Z,23.31
2019-05-16T01:13:18.553Z,23.32
2019-05-16T01:14:17.703Z,23.35
2019-05-16T01:15:18.445Z,23.40
2019-05-16T01:16:18.668Z,23.27
2019-05-16T01:17:18.232Z,23.45
2019-05-16T01:18:18.705Z,23.45
2019-05-16T01:19:18.664Z,23.43
2019-05-16T01:20:19.199Z,23.40
2019-05-16T01:21:18.548Z,23.45
2019-05-16T01:22:18.658Z,23.47
2019-05-16T01:23:18.213Z,23.38
2019-05-16T01:24:18.801Z,23.38
2019-05-16T01:25:19.308Z,23.47
2019-05-16T01:26:18.569Z,23.43
2019-05-16T01:27:18.504Z,23.40
2019-05-16T01:28:18.051Z,23.39
2019-05-16T01:29:18.813Z,23.38
2019-05-16T01:30:18.677Z,23.40
2019-05-16T01:31:19.128Z,23.45
2019-05-16T01:32:18.996Z,23.39
2019-05-16T01:33:19.075Z,23.42
2019-05-16T01:34:18.129Z,23.42
2019-05-16T01:35:18.808Z,23.43
2019-05-16T01:36:26.282Z,23.42
2019-05-16T01:37:18.621Z,23.43
2019-05-16T01:38:18.053Z,23.34
2019-05-16T01:39:18.277Z,23.43
2019-05-16T01:40:18.822Z,23.42
2019-05-16T01:41:18.031Z,23.42
2019-05-16T01:42:18.450Z,23.38
2019-05-16T01:43:17.799Z,23.40
2019-05-16T01:44:18.319Z,23.38
2019-05-16T01:45:18.826Z,23.40
2019-05-16T01:46:18.025Z,23.40
2019-05-16T01:47:18.264Z,23.34
2019-05-16T01:48:19.052Z,23.39
2019-05-16T01:49:18.770Z,23.42
2019-05-16T01:50:18.171Z,23.42
2019-05-16T01:51:18.380Z,23.38
2019-05-16T01:52:17.843Z,23.43
2019-05-16T01:53:17.845Z,23.46
2019-05-16T01:54:17.978Z,23.40
2019-05-16T01:55:18.678Z,23.46
2019-05-16T01:56:17.969Z,23.39
2019-05-16T01:57:18.143Z,23.39
2019-05-16T01:58:19.842Z,23.42
2019-05-16T01:59:18.155Z,23.38
2019-05-16T02:00:23.589Z,23.40
2019-05-16T02:01:19.016Z,23.38
2019-05-16T02:02:18.352Z,23.39
2019-05-16T02:03:18.832Z,23.45
2019-05-16T02:04:18.354Z,23.39
2019-05-16T02:05:18.599Z,23.34
2019-05-16T02:06:18.350Z,23.42
2019-05-16T02:07:18.231Z,23.52
2019-05-16T02:08:18.250Z,23.46
2019-05-16T02:09:18.862Z,23.43
2019-05-16T02:10:18.046Z,23.43
2019-05-16T02:11:18.107Z,23.39
2019-05-16T02:12:18.464Z,23.39
2019-05-16T02:13:18.099Z,23.43
2019-05-16T02:14:17.728Z,23.38
2019-05-16T02:15:18.255Z,23.49
2019-05-16T02:16:18.530Z,23.43
2019-05-16T02:17:18.396Z,23.43
2019-05-16T02:18:18.435Z,23.35
2019-05-16T02:19:18.645Z,23.45
2019-05-16T02:20:17.998Z,23.43
2019-05-16T02:21:18.206Z,23.50
2019-05-16T02:22:17.889Z,23.40
2019-05-16T02:23:18.530Z,23.47
2019-05-16T02:24:18.269Z,23.39
2019-05-16T02:25:18.469Z,23.34
2019-05-16T02:26:18.910Z,23.46
2019-05-16T02:27:18.229Z,23.40
2019-05-16T02:28:16.398Z,23.42
2019-05-16T02:29:16.388Z,23.39
2019-05-16T02:30:16.410Z,23.43
2019-05-16T02:31:16.365Z,23.45
2019-05-16T02:32:16.357Z,23.43
2019-05-16T02:33:16.342Z,23.39
2019-05-16T02:34:16.331Z,23.45
2019-05-16T02:35:16.322Z,23.38
2019-05-16T02:36:16.342Z,23.38
2019-05-16T02:37:24.178Z,23.34
2019-05-16T02:38:17.285Z,23.42
2019-05-16T02:39:16.285Z,23.34
2019-05-16T02:40:16.266Z,23.45
2019-05-16T02:41:16.254Z,23.43
2019-05-16T02:42:16.278Z,23.43
2019-05-16T02:43:16.231Z,23.38
2019-05-16T02:44:16.222Z,23.46
2019-05-16T02:45:16.210Z,23.42
2019-05-16T02:46:16.197Z,23.46
2019-05-16T02:47:16.185Z,23.43
2019-05-16T02:48:16.182Z,23.49
2019-05-16T02:49:16.163Z,23.43
2019-05-16T02:50:16.151Z,23.38
2019-05-16T02:51:16.140Z,23.34
2019-05-16T02:52:16.131Z,23.40
2019-05-16T02:53:16.121Z,23.43
2019-05-16T02:54:16.114Z,23.43
2019-05-16T02:55:16.097Z,23.40
2019-05-16T02:56:16.085Z,23.47
2019-05-16T02:57:16.071Z,23.32
2019-05-16T02:58:16.060Z,23.46
2019-05-16T02:59:16.051Z,23.34
2019-05-16T03:00:16.074Z,23.34
2019-05-16T03:01:16.028Z,23.39
2019-05-16T03:02:16.019Z,23.47
2019-05-16T03:03:16.006Z,23.32
2019-05-16T03:04:15.994Z,23.40
2019-05-16T03:05:15.989Z,23.32
2019-05-16T03:06:16.018Z,23.31
2019-05-16T03:07:35.484Z,23.47
2019-05-16T03:08:16.949Z,23.35
2019-05-16T03:09:15.937Z,23.45
2019-05-16T03:10:15.928Z,23.32
2019-05-16T03:11:15.922Z,23.38
2019-05-16T03:12:15.935Z,23.43
2019-05-16T03:13:15.895Z,23.32
2019-05-16T03:14:15.881Z,23.27
2019-05-16T03:15:15.872Z,23.35
2019-05-16T03:16:15.862Z,23.32
2019-05-16T03:17:15.847Z,23.32
2019-05-16T03:18:15.872Z,23.32
2019-05-16T03:19:15.826Z,23.29
2019-05-16T03:20:15.816Z,23.31
2019-05-16T03:21:15.806Z,23.35
2019-05-16T03:22:15.804Z,23.32
2019-05-16T03:23:15.779Z,23.32
2019-05-16T03:24:15.778Z,23.35
2019-05-16T03:25:15.758Z,23.35
2019-05-16T03:26:15.747Z,23.32
2019-05-16T03:27:15.756Z,23.42
2019-05-16T03:28:15.732Z,23.31
2019-05-16T03:29:15.712Z,23.35
2019-05-16T03:30:17.075Z,23.29
2019-05-16T03:31:16.098Z,23.31
2019-05-16T03:32:15.701Z,23.32
2019-05-16T03:33:24.294Z,23.42
2019-05-16T03:34:17.402Z,23.35
2019-05-16T03:35:16.865Z,23.31
2019-05-16T03:36:16.204Z,23.34
2019-05-16T03:37:15.631Z,23.34
2019-05-16T03:38:15.611Z,23.35
2019-05-16T03:39:15.601Z,23.42
2019-05-16T03:40:15.590Z,23.32
2019-05-16T03:41:15.585Z,23.32
2019-05-16T03:42:15.594Z,23.35
2019-05-16T03:43:15.566Z,23.29
2019-05-16T03:44:15.545Z,23.34
2019-05-16T03:45:15.537Z,23.31
2019-05-16T03:46:15.526Z,23.31
2019-05-16T03:47:15.512Z,23.29
2019-05-16T03:48:15.520Z,23.35
2019-05-16T03:49:15.488Z,23.32
2019-05-16T03:50:15.476Z,23.27
2019-05-16T03:51:15.480Z,23.38
2019-05-16T03:52:15.467Z,23.34
2019-05-16T03:53:15.448Z,23.32
2019-05-16T03:54:15.466Z,23.32
2019-05-16T03:55:15.422Z,23.32
2019-05-16T03:56:15.427Z,23.34
2019-05-16T03:57:15.403Z,23.38
2019-05-16T03:58:15.391Z,23.32
2019-05-16T03:59:15.394Z,23.31
2019-05-16T04:00:15.395Z,23.32
2019-05-16T04:01:15.355Z,23.31
2019-05-16T04:02:15.346Z,23.29
2019-05-16T04:03:15.331Z,23.32
2019-05-16T04:04:15.326Z,23.31
2019-05-16T04:05:15.311Z,23.32
2019-05-16T04:06:15.325Z,23.32
2019-05-16T04:07:15.288Z,23.34
2019-05-16T04:08:20.741Z,23.34
2019-05-16T04:09:16.273Z,23.34
2019-05-16T04:10:15.265Z,23.38
2019-05-16T04:11:18.582Z,23.38
2019-05-16T04:12:16.235Z,23.35
2019-05-16T04:13:15.222Z,23.34
2019-05-16T04:14:15.215Z,23.32
2019-05-16T04:15:15.202Z,23.29
2019-05-16T04:16:15.186Z,23.38
2019-05-16T04:17:15.178Z,23.32
2019-05-16T04:18:15.188Z,23.29
2019-05-16T04:19:15.157Z,23.43
2019-05-16T04:20:15.144Z,23.32
2019-05-16T04:21:17.609Z,23.35
2019-05-16T04:22:16.130Z,23.38
2019-05-16T04:23:15.112Z,23.32
2019-05-16T04:24:15.127Z,23.31
2019-05-16T04:25:15.091Z,23.34
2019-05-16T04:26:15.076Z,23.32
2019-05-16T04:27:15.062Z,23.32
2019-05-16T04:28:15.059Z,23.34
2019-05-16T04:29:15.054Z,23.29
2019-05-16T04:30:15.057Z,23.34
2019-05-16T04:31:15.026Z,23.31
2019-05-16T04:32:15.010Z,23.32
2019-05-16T04:33:15.005Z,23.34
2019-05-16T04:34:14.981Z,23.29
2019-05-16T04:35:14.973Z,23.32
2019-05-16T04:36:14.986Z,23.32
2019-05-16T04:37:14.951Z,23.32
2019-05-16T04:38:30.224Z,23.31
2019-05-16T04:39:15.934Z,23.29
2019-05-16T04:40:14.916Z,23.29
2019-05-16T04:41:14.910Z,23.32
2019-05-16T04:42:14.934Z,23.32
2019-05-16T04:43:14.887Z,23.31
2019-05-16T04:44:14.874Z,23.34
2019-05-16T04:45:14.857Z,23.31
2019-05-16T04:46:14.847Z,23.34
2019-05-16T04:47:14.839Z,23.34
2019-05-16T04:48:14.837Z,23.34
2019-05-16T04:49:14.817Z,23.29
2019-05-16T04:50:14.802Z,23.40
2019-05-16T04:51:14.789Z,23.38
2019-05-16T04:52:14.792Z,23.32
2019-05-16T04:53:14.769Z,23.34
2019-05-16T04:54:14.788Z,23.32
2019-05-16T04:55:14.744Z,23.31
2019-05-16T04:56:14.734Z,23.31
2019-05-16T04:57:14.723Z,23.31
2019-05-16T04:58:14.711Z,23.34
2019-05-16T04:59:16.610Z,23.39
2019-05-16T05:00:14.722Z,23.34
2019-05-16T05:01:14.679Z,23.35
2019-05-16T05:02:14.687Z,23.34
2019-05-16T05:03:14.655Z,23.29
2019-05-16T05:04:15.376Z,23.38
2019-05-16T05:05:14.632Z,23.34
2019-05-16T05:06:14.654Z,23.27
2019-05-16T05:07:14.611Z,23.31
2019-05-16T05:08:14.599Z,23.32
2019-05-16T05:09:14.596Z,23.32
2019-05-16T05:10:14.577Z,23.35
2019-05-16T05:11:14.565Z,23.34
2019-05-16T05:12:14.566Z,23.31
2019-05-16T05:13:14.548Z,23.31
2019-05-16T05:14:14.532Z,23.34
2019-05-16T05:15:14.520Z,23.29
2019-05-16T05:16:14.510Z,23.31
2019-05-16T05:17:14.499Z,23.29
2019-05-16T05:18:14.523Z,23.32
2019-05-16T05:19:14.474Z,23.38
2019-05-16T05:20:14.463Z,23.32
2019-05-16T05:21:14.454Z,23.32
2019-05-16T05:22:14.444Z,23.40
2019-05-16T05:23:14.429Z,23.31
2019-05-16T05:24:14.461Z,23.32
2019-05-16T05:25:14.406Z,23.34
2019-05-16T05:26:14.396Z,23.34
2019-05-16T05:27:14.383Z,23.34
2019-05-16T05:28:14.374Z,23.31
2019-05-16T05:29:14.362Z,23.35
2019-05-16T05:30:14.383Z,23.35
2019-05-16T05:31:14.353Z,23.32
2019-05-16T05:32:14.674Z,23.26
2019-05-16T05:33:14.318Z,23.29
2019-05-16T05:34:14.305Z,23.34
2019-05-16T05:35:14.293Z,23.31
2019-05-16T05:36:14.290Z,23.38
2019-05-16T05:37:14.272Z,23.32
2019-05-16T05:38:14.260Z,23.32
2019-05-16T05:39:15.599Z,23.32
2019-05-16T05:40:14.238Z,23.38
2019-05-16T05:41:14.227Z,23.32
2019-05-16T05:42:14.252Z,23.34
2019-05-16T05:43:14.205Z,23.32
2019-05-16T05:44:14.212Z,23.29
2019-05-16T05:45:14.181Z,23.32
2019-05-16T05:46:14.170Z,23.32
2019-05-16T05:47:14.158Z,23.35
2019-05-16T05:48:14.157Z,23.35
2019-05-16T05:49:14.137Z,23.35
2019-05-16T05:50:14.125Z,23.43
2019-05-16T05:51:14.114Z,23.31
2019-05-16T05:52:14.113Z,23.27
2019-05-16T05:53:14.094Z,23.32
2019-05-16T05:54:14.109Z,23.42
2019-05-16T05:55:14.075Z,23.29
2019-05-16T05:56:14.059Z,23.27
2019-05-16T05:57:14.047Z,23.42
2019-05-16T05:58:14.044Z,23.35
2019-05-16T05:59:14.027Z,23.29
2019-05-16T06:00:14.026Z,23.34
2019-05-16T06:01:14.004Z,23.34
2019-05-16T06:02:13.990Z,23.35
2019-05-16T06:03:13.980Z,23.34
2019-05-16T06:04:13.967Z,23.32
2019-05-16T06:05:13.958Z,23.27
2019-05-16T06:06:13.979Z,23.46
2019-05-16T06:07:13.934Z,23.29
2019-05-16T06:08:13.927Z,23.29
2019-05-16T06:09:25.235Z,23.32
2019-05-16T06:10:14.902Z,23.35
2019-05-16T06:11:13.905Z,23.38
2019-05-16T06:12:13.910Z,23.35
2019-05-16T06:13:13.867Z,23.35
2019-05-16T06:14:13.855Z,23.38
2019-05-16T06:15:13.845Z,23.32
2019-05-16T06:16:13.834Z,23.32
2019-05-16T06:17:13.822Z,23.35
2019-05-16T06:18:13.839Z,23.35
2019-05-16T06:19:13.802Z,23.32
2019-05-16T06:20:14.806Z,23.35
2019-05-16T06:21:13.781Z,23.34
2019-05-16T06:22:13.765Z,23.35
2019-05-16T06:23:13.763Z,23.34
2019-05-16T06:24:16.199Z,23.34
2019-05-16T06:25:14.006Z,23.34
2019-05-16T06:26:13.721Z,23.32
2019-05-16T06:27:13.709Z,23.32
2019-05-16T06:28:13.717Z,23.27
2019-05-16T06:29:13.687Z,23.34
2019-05-16T06:30:15.619Z,23.32
2019-05-16T06:31:14.557Z,23.32
2019-05-16T06:32:13.655Z,23.35
2019-05-16T06:33:13.646Z,23.35
2019-05-16T06:34:15.226Z,23.34
2019-05-16T06:35:13.619Z,23.35
2019-05-16T06:36:13.646Z,23.45
2019-05-16T06:37:13.597Z,23.31
2019-05-16T06:38:13.586Z,23.47
2019-05-16T06:39:13.576Z,23.32
2019-05-16T06:40:13.564Z,23.31
2019-05-16T06:41:13.554Z,23.42
2019-05-16T06:42:13.549Z,23.39
2019-05-16T06:43:13.530Z,23.32
2019-05-16T06:44:13.518Z,23.42
2019-05-16T06:45:13.508Z,23.39
2019-05-16T06:46:13.497Z,23.46
2019-05-16T06:47:19.753Z,23.43
2019-05-16T06:48:14.510Z,23.34
2019-05-16T06:49:13.463Z,23.46
2019-05-16T06:50:13.450Z,23.43
2019-05-16T06:51:13.441Z,23.32
2019-05-16T06:52:13.428Z,23.43
2019-05-16T06:53:13.417Z,23.42
2019-05-16T06:54:13.413Z,23.32
2019-05-16T06:55:13.399Z,23.46
2019-05-16T06:56:13.384Z,23.32
2019-05-16T06:57:13.373Z,23.31
2019-05-16T06:58:13.362Z,23.43
2019-05-16T06:59:13.350Z,23.32
2019-05-16T07:00:13.347Z,23.35
2019-05-16T07:01:13.327Z,23.31
2019-05-16T07:02:26.707Z,23.39
2019-05-16T07:03:14.303Z,23.40
2019-05-16T07:04:13.293Z,23.32
2019-05-16T07:05:13.283Z,23.27
2019-05-16T07:06:29.736Z,23.32
2019-05-16T07:07:14.260Z,23.34
2019-05-16T07:08:13.249Z,23.45
2019-05-16T07:09:13.237Z,23.42
2019-05-16T07:10:13.235Z,23.39
2019-05-16T07:11:13.214Z,23.45
2019-05-16T07:12:13.212Z,23.43
2019-05-16T07:13:13.195Z,23.45
2019-05-16T07:14:13.187Z,23.46
2019-05-16T07:15:13.171Z,23.45
2019-05-16T07:16:13.159Z,23.35
2019-05-16T07:17:13.150Z,23.43
2019-05-16T07:18:13.295Z,23.34
2019-05-16T07:19:13.125Z,23.45
2019-05-16T07:20:13.113Z,23.34
2019-05-16T07:21:13.103Z,23.47
2019-05-16T07:22:13.092Z,23.45
2019-05-16T07:23:13.081Z,23.45
2019-05-16T07:24:13.099Z,23.31
2019-05-16T07:25:13.057Z,23.47
2019-05-16T07:26:13.048Z,23.34
2019-05-16T07:27:13.034Z,23.49
2019-05-16T07:28:13.022Z,23.47
2019-05-16T07:29:13.012Z,23.45
2019-05-16T07:30:13.042Z,23.49
2019-05-16T07:31:18.358Z,23.35
2019-05-16T07:32:13.977Z,23.43
2019-05-16T07:33:12.968Z,23.43
2019-05-16T07:34:14.617Z,23.46
2019-05-16T07:35:12.946Z,23.46
2019-05-16T07:36:15.849Z,23.46
2019-05-16T07:37:12.929Z,23.38
2019-05-16T07:38:12.912Z,23.42
2019-05-16T07:39:12.900Z,23.34
2019-05-16T07:40:22.625Z,23.43
2019-05-16T07:41:14.250Z,23.47
2019-05-16T07:42:12.869Z,23.46
2019-05-16T07:43:12.857Z,23.47
2019-05-16T07:44:12.851Z,23.38
2019-05-16T07:45:12.833Z,23.38
2019-05-16T07:46:12.824Z,23.43
2019-05-16T07:47:12.822Z,23.40
2019-05-16T07:48:12.799Z,23.43
2019-05-16T07:49:12.792Z,23.42
2019-05-16T07:50:12.775Z,23.42
2019-05-16T07:51:12.768Z,23.45
2019-05-16T07:52:12.753Z,23.32
2019-05-16T07:53:12.776Z,23.42
2019-05-16T07:54:12.732Z,23.39
2019-05-16T07:55:12.822Z,23.45
2019-05-16T07:56:12.710Z,23.39
2019-05-16T07:57:19.605Z,23.47
2019-05-16T07:58:13.697Z,23.34
2019-05-16T07:59:12.675Z,23.38
2019-05-16T08:00:12.664Z,23.34
2019-05-16T08:01:12.952Z,23.42
2019-05-16T08:02:12.644Z,23.40
2019-05-16T08:03:12.631Z,23.40
2019-05-16T08:04:12.626Z,23.38
2019-05-16T08:05:12.608Z,23.43
2019-05-16T08:06:12.596Z,23.45
2019-05-16T08:07:12.587Z,23.45
2019-05-16T08:08:12.578Z,23.49
2019-05-16T08:09:13.075Z,23.39
2019-05-16T08:10:12.559Z,23.49
2019-05-16T08:11:12.540Z,23.49
2019-05-16T08:12:12.528Z,23.43
2019-05-16T08:13:13.120Z,23.47
2019-05-16T08:14:12.505Z,23.43
2019-05-16T08:15:12.496Z,23.47
2019-05-16T08:16:12.523Z,23.42
2019-05-16T08:17:12.473Z,23.49
2019-05-16T08:18:12.461Z,23.50
2019-05-16T08:19:12.450Z,23.53
2019-05-16T08:20:12.459Z,23.47
2019-05-16T08:21:16.587Z,23.43
2019-05-16T08:22:12.427Z,23.49
2019-05-16T08:23:12.408Z,23.46
2019-05-16T08:24:14.932Z,23.53
2019-05-16T08:25:12.381Z,23.50
2019-05-16T08:26:12.372Z,23.49
2019-05-16T08:27:12.439Z,23.40
2019-05-16T08:28:12.357Z,23.45
2019-05-16T08:29:13.390Z,23.53
2019-05-16T08:30:12.325Z,23.53
2019-05-16T08:31:12.315Z,23.42
2019-05-16T08:32:12.303Z,23.55
2019-05-16T08:34:13.313Z,23.49
2019-05-16T08:35:12.271Z,23.53
2019-05-16T08:36:12.297Z,23.53
2019-05-16T08:37:32.942Z,23.42
2019-05-16T08:38:13.650Z,23.45
2019-05-16T08:39:12.225Z,23.47
2019-05-16T08:40:12.252Z,23.49
2019-05-16T08:41:16.861Z,23.39
2019-05-16T08:42:13.418Z,23.46
2019-05-16T08:43:12.180Z,23.46
2019-05-16T08:44:12.631Z,23.53
2019-05-16T08:45:12.976Z,23.49
2019-05-16T08:46:12.750Z,23.50
2019-05-16T08:47:12.261Z,23.49
2019-05-16T08:48:12.122Z,23.49
2019-05-16T08:49:12.667Z,23.52
2019-05-16T08:50:14.491Z,23.43
2019-05-16T08:51:12.416Z,23.47
2019-05-16T08:52:12.115Z,23.47
2019-05-16T08:53:13.793Z,23.47
2019-05-16T08:54:13.546Z,23.46
2019-05-16T08:55:13.318Z,23.42
2019-05-16T08:56:13.225Z,23.40
2019-05-16T08:57:26.165Z,23.49
2019-05-16T08:58:13.722Z,23.45
2019-05-16T08:59:13.468Z,23.47
2019-05-16T09:00:14.732Z,23.50
2019-05-16T09:02:12.980Z,23.49
2019-05-16T09:03:12.443Z,23.52
2019-05-16T09:04:12.113Z,23.49
2019-05-16T09:05:13.602Z,23.47
2019-05-16T09:06:12.018Z,23.45
2019-05-16T09:07:12.696Z,23.50
2019-05-16T09:08:11.898Z,23.46
2019-05-16T09:09:27.657Z,23.52
2019-05-16T09:10:10.999Z,23.50
2019-05-16T09:10:34.492Z,23.43
2019-05-16T09:10:45.756Z,23.49
2019-05-16T09:11:29.925Z,23.49
2019-05-16T09:12:12.851Z,23.53
2019-05-16T09:13:11.842Z,23.47
2019-05-16T09:14:11.833Z,23.47
2019-05-16T09:15:11.819Z,23.42
2019-05-16T09:16:11.817Z,23.50
2019-05-16T09:17:11.822Z,23.52
2019-05-16T09:18:11.786Z,23.49
2019-05-16T09:19:11.776Z,23.49
2019-05-16T09:20:11.765Z,23.45
2019-05-16T09:21:11.752Z,23.47
2019-05-16T09:22:11.756Z,23.50
2019-05-16T09:23:11.730Z,23.49
2019-05-16T09:24:11.719Z,23.47
2019-05-16T09:25:11.707Z,23.49
2019-05-16T09:26:15.830Z,23.43
2019-05-16T09:27:13.332Z,23.52
2019-05-16T09:28:11.675Z,23.53
2019-05-16T09:29:11.667Z,23.45
2019-05-16T09:30:11.650Z,23.42
2019-05-16T09:31:11.640Z,23.47
2019-05-16T09:32:20.999Z,23.43
2019-05-16T09:33:12.644Z,23.47
2019-05-16T09:34:11.610Z,23.46
2019-05-16T09:35:11.608Z,23.49
2019-05-16T09:36:11.626Z,23.45
2019-05-16T09:37:11.573Z,23.47
2019-05-16T09:38:11.564Z,23.45
2019-05-16T09:39:11.556Z,23.47
2019-05-16T09:40:11.552Z,23.49
2019-05-16T09:41:11.526Z,23.43
2019-05-16T09:42:11.517Z,23.39
2019-05-16T09:43:11.506Z,23.49
2019-05-16T09:44:11.496Z,23.50
2019-05-16T09:45:11.501Z,23.53
2019-05-16T09:46:11.473Z,23.46
2019-05-16T09:47:11.467Z,23.45
2019-05-16T09:48:11.449Z,23.42
2019-05-16T09:49:19.185Z,23.53
2019-05-16T09:50:12.451Z,23.49
2019-05-16T09:51:11.415Z,23.49
2019-05-16T09:52:11.408Z,23.50
2019-05-16T09:53:11.391Z,23.55
2019-05-16T09:54:11.381Z,23.43
2019-05-16T09:55:11.383Z,23.47
2019-05-16T09:56:11.365Z,23.57
2019-05-16T09:57:11.347Z,23.53
2019-05-16T09:58:11.336Z,23.45
2019-05-16T09:59:11.323Z,23.49
2019-05-16T10:00:11.313Z,23.47
2019-05-16T10:01:11.312Z,23.46
2019-05-16T10:02:11.326Z,23.47
2019-05-16T10:03:11.289Z,23.47
2019-05-16T10:04:11.274Z,23.52
2019-05-16T10:05:13.512Z,23.49
2019-05-16T10:06:11.245Z,23.49
2019-05-16T10:07:11.237Z,23.55
2019-05-16T10:08:11.251Z,23.50
2019-05-16T10:09:11.212Z,23.42
2019-05-16T10:10:11.201Z,23.52
2019-05-16T10:11:11.191Z,23.50
2019-05-16T10:12:15.339Z,23.45
2019-05-16T10:13:12.204Z,23.50
2019-05-16T10:14:11.161Z,23.45
2019-05-16T10:15:11.145Z,23.47
2019-05-16T10:16:11.133Z,23.57
2019-05-16T10:17:11.121Z,23.46
2019-05-16T10:18:11.112Z,23.49
2019-05-16T10:19:11.133Z,23.50
2019-05-16T10:20:11.087Z,23.49
2019-05-16T10:21:11.079Z,23.47
2019-05-16T10:22:11.065Z,23.39
2019-05-16T10:23:14.735Z,23.49
2019-05-16T10:24:12.055Z,23.45
2019-05-16T10:25:11.032Z,23.47
2019-05-16T10:26:11.021Z,23.43
2019-05-16T10:27:11.009Z,23.46
2019-05-16T10:28:10.997Z,23.58
2019-05-16T10:29:11.175Z,23.46
2019-05-16T10:30:11.009Z,23.47
2019-05-16T10:31:10.965Z,23.46
2019-05-16T10:32:10.953Z,23.47
2019-05-16T10:33:10.943Z,23.49
2019-05-16T10:34:10.932Z,23.50
2019-05-16T10:35:10.918Z,23.45
2019-05-16T10:36:10.932Z,23.50
2019-05-16T10:37:10.897Z,23.55
2019-05-16T10:38:10.885Z,23.46
2019-05-16T10:39:10.874Z,23.47
2019-05-16T10:40:10.863Z,23.50
2019-05-16T10:41:10.858Z,23.49
2019-05-16T10:42:23.524Z,23.43
2019-05-16T10:43:11.827Z,23.53
2019-05-16T10:44:10.818Z,23.50
2019-05-16T10:45:10.807Z,23.39
2019-05-16T10:46:10.795Z,23.46
2019-05-16T10:47:10.786Z,23.60
2019-05-16T10:48:10.783Z,23.53
2019-05-16T10:49:10.762Z,23.47
2019-05-16T10:50:10.752Z,23.57
2019-05-16T10:51:10.742Z,23.50
2019-05-16T10:52:10.729Z,23.53
2019-05-16T10:53:32.420Z,23.47
2019-05-16T10:54:14.235Z,23.45
2019-05-16T10:55:10.834Z,23.43
2019-05-16T10:56:10.711Z,23.55
2019-05-16T10:57:10.770Z,23.47
2019-05-16T10:58:10.660Z,23.49
2019-05-16T10:59:46.628Z,23.52
2019-05-16T11:00:21.449Z,23.47
2019-05-16T11:01:24.254Z,23.47
2019-05-16T11:02:11.677Z,23.43
2019-05-16T11:03:10.604Z,23.55
2019-05-16T11:04:10.595Z,23.58
2019-05-16T11:05:25.116Z,23.60
2019-05-16T11:06:24.794Z,23.43
2019-05-16T11:07:11.558Z,23.47
2019-05-16T11:08:10.634Z,23.57
2019-05-16T11:09:10.538Z,23.57
2019-05-16T11:10:10.528Z,23.47
2019-05-16T11:11:10.529Z,23.49
2019-05-16T11:12:10.511Z,23.47
2019-05-16T11:13:10.491Z,23.50
2019-05-16T11:14:10.484Z,23.50
2019-05-16T11:15:11.439Z,23.55
2019-05-16T11:16:10.460Z,23.53
2019-05-16T11:17:13.226Z,23.53
2019-05-16T11:18:10.448Z,23.49
2019-05-16T11:19:17.145Z,23.49
2019-05-16T11:20:11.463Z,23.55
2019-05-16T11:21:10.402Z,23.49
2019-05-16T11:22:10.389Z,23.53
2019-05-16T11:23:10.380Z,23.49
2019-05-16T11:24:12.297Z,23.42
2019-05-16T11:25:20.824Z,23.49
2019-05-16T11:26:11.343Z,23.52
2019-05-16T11:27:10.341Z,23.45
2019-05-16T11:28:10.326Z,23.47
2019-05-16T11:29:10.313Z,23.45
2019-05-16T11:30:10.372Z,23.45
2019-05-16T11:31:10.290Z,23.53
2019-05-16T11:32:10.277Z,23.52
2019-05-16T11:33:10.278Z,23.43
2019-05-16T11:34:10.264Z,23.55
2019-05-16T11:35:10.266Z,23.52
2019-05-16T11:36:12.773Z,23.53
2019-05-16T11:37:10.221Z,23.53
2019-05-16T11:38:10.211Z,23.52
2019-05-16T11:39:10.200Z,23.50
2019-05-16T11:40:10.188Z,23.53
2019-05-16T11:41:10.181Z,23.57
2019-05-16T11:42:10.178Z,23.52
2019-05-16T11:43:15.979Z,23.52
2019-05-16T11:44:11.143Z,23.53
2019-05-16T11:45:10.684Z,23.55
2019-05-16T11:46:10.121Z,23.61
2019-05-16T11:47:10.110Z,23.49
2019-05-16T11:48:10.106Z,23.55
2019-05-16T11:49:10.087Z,23.47
2019-05-16T11:50:10.108Z,23.58
2019-05-16T11:51:10.072Z,23.57
2019-05-16T11:52:10.055Z,23.52
2019-05-16T11:53:10.041Z,23.60
2019-05-16T11:54:10.038Z,23.55
2019-05-16T11:55:10.019Z,23.60
2019-05-16T11:56:10.009Z,23.53
2019-05-16T11:57:10.022Z,23.52
2019-05-16T11:58:09.990Z,23.52
2019-05-16T11:59:09.975Z,23.60
2019-05-16T12:00:09.986Z,23.57
2019-05-16T12:01:09.951Z,23.58
2019-05-16T12:02:09.941Z,23.55
2019-05-16T12:03:09.932Z,23.64
2019-05-16T12:04:09.920Z,23.43
2019-05-16T12:05:09.911Z,23.50
2019-05-16T12:06:11.165Z,23.57
2019-05-16T12:07:09.884Z,23.62
2019-05-16T12:08:09.873Z,23.61
2019-05-16T12:09:09.863Z,23.55
2019-05-16T12:10:09.855Z,23.55
2019-05-16T12:11:09.839Z,23.45
2019-05-16T12:12:09.858Z,23.55
2019-05-16T12:13:24.122Z,23.50
2019-05-16T12:14:10.805Z,23.55
2019-05-16T12:15:09.793Z,23.52
2019-05-16T12:16:09.792Z,23.53
2019-05-16T12:17:09.778Z,23.55
2019-05-16T12:18:09.790Z,23.57
2019-05-16T12:19:09.751Z,23.52
2019-05-16T12:20:09.758Z,23.61
2019-05-16T12:21:09.726Z,23.60
2019-05-16T12:22:09.722Z,23.55
2019-05-16T12:23:09.705Z,23.60
2019-05-16T12:24:09.733Z,23.58
2019-05-16T12:25:09.682Z,23.53
2019-05-16T12:26:09.687Z,23.61
2019-05-16T12:27:09.659Z,23.57
2019-05-16T12:28:09.649Z,23.57
2019-05-16T12:29:09.637Z,23.53
2019-05-16T12:30:13.743Z,23.58
2019-05-16T12:31:09.613Z,23.57
2019-05-16T12:32:09.602Z,23.53
2019-05-16T12:33:09.592Z,23.55
2019-05-16T12:34:10.172Z,23.64
2019-05-16T12:35:09.574Z,23.58
2019-05-16T12:36:09.567Z,23.57
2019-05-16T12:37:09.552Z,23.57
2019-05-16T12:38:09.545Z,23.57
2019-05-16T12:39:09.525Z,23.55
2019-05-16T12:40:09.517Z,23.57
2019-05-16T12:41:09.502Z,23.57
2019-05-16T12:42:09.499Z,23.55
2019-05-16T12:43:09.478Z,23.60
2019-05-16T12:44:09.475Z,23.53
2019-05-16T12:45:09.456Z,23.62
2019-05-16T12:46:09.447Z,23.67
2019-05-16T12:47:09.434Z,23.53
2019-05-16T12:48:09.434Z,23.57
2019-05-16T12:49:09.414Z,23.53
2019-05-16T12:50:09.402Z,23.60
2019-05-16T12:51:09.389Z,23.58
2019-05-16T12:52:09.379Z,23.58